Time;durP1;ratioP1;P1;durP2;ratioP2;P2;SDS_P1;SDS_P2;PMS_P1;PMS_P2;Temp;Humidity;BMP_temperature;BMP_pressure;BME280_temperature;BME280_humidity;BME280_pressure;Samples;Min_cycle;Max_cycle;Signal;HPM_P1;HPM_P2
2022/12/16 00:01:22;;;;;;;52.38;28.88;;;;;;;-0.12;100.00;100901.16;4971532;28;20073;-83
2022/12/16 00:03:52;;;;;;;46.28;28.45;;;;;;;-0.08;100.00;100917.88;4967869;28;20449;-83
2022/12/16 00:06:19;;;;;;;49.17;27.92;;;;;;;-0.12;100.00;100916.88;4993463;28;20029;-83
2022/12/16 00:08:45;;;;;;;41.40;27.35;;;;;;;-0.16;100.00;100910.34;4986644;28;20032;-84
2022/12/16 00:11:11;;;;;;;45.85;28.80;;;;;;;-0.21;100.00;100897.50;4988614;28;20030;-83
2022/12/16 00:13:39;;;;;;;44.22;27.55;;;;;;;-0.16;100.00;100910.34;4974187;28;20026;-83
2022/12/16 00:16:10;;;;;;;45.80;28.50;;;;;;;-0.17;100.00;100909.50;4987487;28;20044;-83
2022/12/16 00:18:36;;;;;;;43.97;27.70;;;;;;;-0.06;100.00;100921.16;4984818;28;20065;-83
2022/12/16 00:21:01;;;;;;;52.20;29.20;;;;;;;-0.06;100.00;100916.47;4984558;28;20057;-83
2022/12/16 00:23:28;;;;;;;48.17;29.75;;;;;;;-0.17;100.00;100928.75;4968886;28;20061;-83
2022/12/16 00:25:53;;;;;;;47.70;27.85;;;;;;;-0.07;100.00;100928.56;4985489;28;20034;-83
2022/12/16 00:28:22;;;;;;;48.95;28.30;;;;;;;-0.17;100.00;100916.94;4970739;28;20080;-84
2022/12/16 00:30:49;;;;;;;56.60;32.30;;;;;;;-0.28;100.00;100927.34;4987276;28;20397;-83
2022/12/16 00:33:15;;;;;;;46.10;28.05;;;;;;;-0.13;100.00;100928.97;4983267;28;20115;-83
2022/12/16 00:35:40;;;;;;;54.83;33.08;;;;;;;-0.12;100.00;100922.38;4963379;28;20070;-84
2022/12/16 00:38:05;;;;;;;60.05;33.55;;;;;;;-0.10;100.00;100920.13;4970263;28;20026;-83
2022/12/16 00:40:31;;;;;;;52.40;29.73;;;;;;;-0.10;100.00;100920.94;4962435;28;20030;-83
2022/12/16 00:42:56;;;;;;;49.17;28.20;;;;;;;-0.06;100.00;100929.41;4962602;28;20049;-83
2022/12/16 00:45:21;;;;;;;49.30;29.05;;;;;;;-0.21;100.00;100920.31;4979635;28;20033;-83
2022/12/16 00:47:49;;;;;;;49.75;28.42;;;;;;;-0.12;100.00;100925.13;4973536;28;20038;-84
2022/12/16 00:50:14;;;;;;;51.42;29.17;;;;;;;0.00;100.00;100941.94;4960928;28;20022;-83
2022/12/16 00:52:40;;;;;;;57.85;32.15;;;;;;;-0.24;100.00;100942.91;4975678;28;20385;-83
2022/12/16 00:55:06;;;;;;;55.50;33.80;;;;;;;-0.08;100.00;100939.91;4961604;28;20031;-84
2022/12/16 00:57:32;;;;;;;57.83;33.30;;;;;;;0.08;100.00;100954.97;4980064;28;20069;-84
2022/12/16 00:59:57;;;;;;;54.80;34.60;;;;;;;0.13;100.00;100948.56;4967445;28;20128;-83
2022/12/16 01:02:23;;;;;;;61.22;33.53;;;;;;;0.10;100.00;100941.72;4961611;28;20438;-83
2022/12/16 01:04:48;;;;;;;47.42;29.52;;;;;;;0.13;100.00;100954.91;4969927;28;20030;-83
2022/12/16 01:07:14;;;;;;;52.35;33.90;;;;;;;0.11;100.00;100948.88;4980411;28;20394;-83
2022/12/16 01:09:39;;;;;;;60.55;32.90;;;;;;;0.14;100.00;100959.25;4977681;28;20041;-84
2022/12/16 01:12:05;;;;;;;53.65;30.77;;;;;;;0.07;100.00;100944.28;4963104;28;20034;-84
2022/12/16 01:14:30;;;;;;;43.47;26.95;;;;;;;0.10;100.00;100961.00;4967236;28;20390;-83
2022/12/16 01:16:55;;;;;;;51.80;32.42;;;;;;;0.10;100.00;100963.75;4969961;28;20076;-83
2022/12/16 01:19:21;;;;;;;47.83;28.58;;;;;;;0.09;100.00;100967.63;4964444;28;20415;-84
2022/12/16 01:21:46;;;;;;;43.78;28.15;;;;;;;0.08;100.00;100977.00;4962277;28;20034;-84
2022/12/16 01:24:12;;;;;;;54.72;30.27;;;;;;;0.15;100.00;100966.41;4964519;28;20073;-83
2022/12/16 01:26:38;;;;;;;51.05;28.00;;;;;;;0.20;100.00;100963.56;4962602;28;20026;-84
2022/12/16 01:29:04;;;;;;;49.40;29.02;;;;;;;0.15;100.00;100966.41;4980971;28;20466;-84
2022/12/16 01:31:29;;;;;;;46.17;27.17;;;;;;;0.14;100.00;100970.28;4979133;28;20038;-84
2022/12/16 01:33:55;;;;;;;53.15;29.27;;;;;;;0.16;100.00;100980.97;4990054;28;20398;-83
2022/12/16 01:36:20;;;;;;;48.65;28.10;;;;;;;0.17;100.00;100985.38;4963343;28;20030;-84
2022/12/16 01:38:46;;;;;;;43.63;26.60;;;;;;;0.18;100.00;100998.81;4969826;28;20022;-84
2022/12/16 01:41:14;;;;;;;43.15;26.77;;;;;;;0.13;100.00;100996.19;4983289;28;20018;-84
2022/12/16 01:43:40;;;;;;;50.30;29.40;;;;;;;0.18;100.00;101009.84;4957237;28;20139;-83
2022/12/16 01:46:12;;;;;;;40.03;25.38;;;;;;;0.18;100.00;101009.84;4968064;28;20061;-83
2022/12/16 01:49:07;;;;;;;48.60;29.85;;;;;;;0.15;100.00;101004.94;4971304;28;20046;-83
2022/12/16 01:51:42;;;;;;;42.88;26.98;;;;;;;0.10;100.00;100995.97;4985089;28;20034;-83
2022/12/16 01:54:14;;;;;;;41.58;25.63;;;;;;;0.14;100.00;101006.06;4966004;28;20085;-84
2022/12/16 01:56:45;;;;;;;40.30;24.27;;;;;;;0.17;100.00;101008.22;4982429;28;20041;-84
2022/12/16 01:59:14;;;;;;;39.28;26.05;;;;;;;0.05;100.00;100994.13;4965512;28;20041;-84
2022/12/16 02:01:40;;;;;;;41.60;25.83;;;;;;;0.14;100.00;101014.31;4981684;28;20027;-83
2022/12/16 02:04:05;;;;;;;43.45;26.90;;;;;;;0.13;100.00;101011.88;4985443;28;20041;-84
2022/12/16 02:06:32;;;;;;;43.25;26.30;;;;;;;0.05;100.00;100999.63;4982153;28;20026;-84
2022/12/16 02:09:00;;;;;;;44.38;26.27;;;;;;;0.15;100.00;101004.13;4965455;28;20080;-83
2022/12/16 02:11:54;;;;;;;42.42;25.50;;;;;;;0.16;100.00;101012.06;4980884;28;20073;-83
2022/12/16 02:14:41;;;;;;;45.00;26.55;;;;;;;0.16;100.00;101012.06;4941401;28;20161;-84
2022/12/16 02:17:11;;;;;;;43.45;26.33;;;;;;;0.12;100.00;101013.81;4975825;28;20042;-83
2022/12/16 02:20:15;;;;;;;46.05;26.40;;;;;;;0.16;100.00;101023.09;4960873;28;20138;-84
2022/12/16 02:22:43;;;;;;;43.65;25.17;;;;;;;0.15;100.00;101018.72;4978137;28;20031;-83
2022/12/16 02:25:42;;;;;;;41.50;25.92;;;;;;;0.15;100.00;101026.16;4975021;28;20039;-84
2022/12/16 02:28:29;;;;;;;45.35;27.23;;;;;;;0.18;100.00;101020.03;4969803;28;21475;-84
2022/12/16 02:31:23;;;;;;;43.75;25.48;;;;;;;0.16;100.00;101016.78;4975987;28;20031;-83
2022/12/16 02:33:57;;;;;;;43.95;25.02;;;;;;;0.16;100.00;101017.56;4981802;28;20030;-83
2022/12/16 02:36:49;;;;;;;46.08;25.92;;;;;;;0.18;100.00;101031.84;4969745;28;20027;-83
2022/12/16 02:39:34;;;;;;;45.65;25.67;;;;;;;0.18;100.00;101031.84;4958420;28;20038;-84
2022/12/16 02:42:05;;;;;;;46.22;26.60;;;;;;;0.19;100.00;101033.50;4979052;28;20038;-84
2022/12/16 02:44:35;;;;;;;39.92;24.75;;;;;;;0.22;100.00;101045.03;4984306;28;20030;-83
2022/12/16 02:47:00;;;;;;;42.13;26.42;;;;;;;0.20;100.00;101045.31;4989534;28;20489;-84
2022/12/16 02:49:25;;;;;;;56.50;31.20;;;;;;;0.20;100.00;101046.13;4987411;28;20117;-83
2022/12/16 02:51:52;;;;;;;46.58;27.70;;;;;;;0.13;100.00;101045.72;4986035;28;20069;-83
2022/12/16 02:54:17;;;;;;;44.92;25.65;;;;;;;0.12;100.00;101046.03;4981474;28;20031;-84
2022/12/16 02:56:49;;;;;;;48.28;27.67;;;;;;;0.22;100.00;101059.59;4971488;28;20371;-83
2022/12/16 02:59:26;;;;;;;49.63;28.38;;;;;;;0.16;100.00;101044.28;4980546;28;20026;-83
2022/12/16 03:02:08;;;;;;;37.20;24.52;;;;;;;0.19;100.00;101050.03;4986855;28;20042;-83
2022/12/16 03:04:53;;;;;;;48.33;28.65;;;;;;;0.18;100.00;101053.88;4986161;28;20038;-84
2022/12/16 03:07:23;;;;;;;54.42;29.30;;;;;;;0.23;100.00;101065.91;4963424;28;20137;-83
2022/12/16 03:09:50;;;;;;;51.30;29.33;;;;;;;0.23;100.00;101065.91;4961158;28;20030;-83
2022/12/16 03:12:17;;;;;;;47.20;26.90;;;;;;;0.18;100.00;101058.56;4965003;28;20034;-84
2022/12/16 03:14:47;;;;;;;45.03;27.58;;;;;;;0.22;100.00;101072.56;4985586;28;20032;-83
2022/12/16 03:17:15;;;;;;;49.80;28.42;;;;;;;0.30;100.00;101074.63;4968014;28;20031;-83
2022/12/16 03:19:45;;;;;;;49.95;29.23;;;;;;;0.24;100.00;101075.81;4984310;28;20085;-83
2022/12/16 03:22:25;;;;;;;48.95;28.92;;;;;;;0.21;100.00;101074.47;4962017;28;20605;-83
2022/12/16 03:24:50;;;;;;;55.10;29.52;;;;;;;0.35;100.00;101080.00;4982751;28;20029;-83
2022/12/16 03:27:23;;;;;;;47.42;26.60;;;;;;;0.29;100.00;101086.72;4981903;28;20030;-84
2022/12/16 03:30:17;;;;;;;;;;;;;;;0.31;100.00;101087.25;4982643;28;20510;-84
2022/12/16 03:33:20;;;;;;;42.75;27.77;;;;;;;0.19;100.00;101074.81;4960444;28;19917;-84
2022/12/16 03:35:53;;;;;;;50.90;26.87;;;;;;;0.35;100.00;101091.03;4982620;28;20181;-83
2022/12/16 03:38:20;;;;;;;60.00;29.92;;;;;;;0.30;100.00;101083.69;4967071;28;20652;-84
2022/12/16 03:40:47;;;;;;;47.03;29.42;;;;;;;0.33;100.00;101099.59;4981336;28;20561;-83
2022/12/16 03:43:14;;;;;;;45.33;27.85;;;;;;;0.32;100.00;101097.97;4983669;28;22100;-83
2022/12/16 03:45:42;;;;;;;37.00;25.35;;;;;;;0.27;100.00;101089.78;4980577;28;20033;-84
2022/12/16 03:48:10;;;;;;;41.88;25.83;;;;;;;0.30;100.00;101096.63;4982538;28;20510;-84
2022/12/16 03:50:37;;;;;;;53.90;31.05;;;;;;;0.31;100.00;101107.31;4982092;28;20057;-83
2022/12/16 03:53:04;;;;;;;46.03;27.50;;;;;;;0.30;100.00;101102.97;4966076;28;20487;-84
2022/12/16 03:55:29;;;;;;;45.05;26.58;;;;;;;0.33;100.00;101112.53;4981958;28;20061;-83
2022/12/16 03:57:56;;;;;;;42.92;26.83;;;;;;;0.31;100.00;101101.00;4966241;28;20059;-83
2022/12/16 04:00:21;;;;;;;57.95;29.52;;;;;;;0.26;100.00;101114.88;4974517;28;20474;-83
2022/12/16 04:02:47;;;;;;;43.60;26.63;;;;;;;0.22;100.00;101100.91;4965722;28;20026;-84
2022/12/16 04:05:12;;;;;;;46.78;28.30;;;;;;;0.35;100.00;101113.88;4989443;28;20042;-84
2022/12/16 04:07:38;;;;;;;40.92;24.38;;;;;;;0.30;100.00;101115.91;4989933;28;20034;-83
2022/12/16 04:10:04;;;;;;;44.65;26.83;;;;;;;0.35;100.00;101121.31;4970246;28;20029;-83
2022/12/16 04:27:23;;;;;;;46.90;28.90;;;;;;;0.30;100.00;101136.00;4983135;28;20085;-83
2022/12/16 04:29:20;;;;;;;47.60;25.67;;;;;;;0.27;100.00;101119.25;4981245;28;20053;-83
2022/12/16 04:31:46;;;;;;;50.03;29.27;;;;;;;0.36;100.00;101129.28;4977533;28;20035;-84
2022/12/16 04:34:27;;;;;;;45.83;25.92;;;;;;;0.24;100.00;101123.44;4984528;28;20026;-83
